Time;durP1;ratioP1;P1;durP2;ratioP2;P2;SDS_P1;SDS_P2;PMS_P1;PMS_P2;Temp;Humidity;BMP_temperature;BMP_pressure;BME280_temperature;BME280_humidity;BME280_pressure;Samples;Min_cycle;Max_cycle;Signal;HPM_P1;HPM_P2
2022/10/27 00:00:44;;;;;;;5.87;4.65;;;;;;;12.55;90.11;101025.53;1849819;77;21885;-86
2022/10/27 00:03:12;;;;;;;3.52;3.22;;;;;;;12.53;90.00;101026.09;1849749;77;20874;-88
2022/10/27 00:05:38;;;;;;;3.92;3.60;;;;;;;12.51;90.07;101029.29;1850922;77;20914;-83
2022/10/27 00:08:05;;;;;;;4.28;3.87;;;;;;;12.50;90.34;101020.56;1852343;77;20928;-83
2022/10/27 00:10:32;;;;;;;5.15;3.95;;;;;;;12.51;90.34;101025.34;1851523;76;21975;-85
2022/10/27 00:12:59;;;;;;;10.63;8.65;;;;;;;12.54;90.46;101025.14;1849956;76;20873;-84
2022/10/27 00:15:27;;;;;;;9.25;6.87;;;;;;;12.56;90.18;101018.00;1850013;77;20964;-86
2022/10/27 00:17:53;;;;;;;6.87;4.85;;;;;;;12.58;90.17;101031.91;1849611;77;21011;-87
2022/10/27 00:20:20;;;;;;;6.28;5.67;;;;;;;12.58;89.80;101033.23;1849529;77;20858;-87
2022/10/27 00:22:50;;;;;;;8.38;5.17;;;;;;;12.57;89.28;101025.81;1849558;77;20865;-86
2022/10/27 00:25:17;;;;;;;5.05;4.28;;;;;;;12.54;88.89;101040.92;1849954;77;21396;-84
2022/10/27 00:27:44;;;;;;;4.37;3.72;;;;;;;12.51;88.97;101034.07;1849980;77;20979;-84
2022/10/27 00:30:11;;;;;;;4.65;4.25;;;;;;;12.52;89.02;101036.26;1850766;77;20917;-84
2022/10/27 00:32:37;;;;;;;5.00;4.47;;;;;;;12.51;88.74;101038.02;1850595;77;20881;-85
2022/10/27 00:35:05;;;;;;;5.75;4.28;;;;;;;12.50;88.41;101039.45;1845027;75;21182;-84
2022/10/27 00:37:32;;;;;;;6.10;4.65;;;;;;;12.47;88.25;101036.98;1835503;77;20831;-85
2022/10/27 00:39:59;;;;;;;13.83;8.28;;;;;;;12.42;88.07;101039.42;1836341;77;21384;-85
2022/10/27 00:42:25;;;;;;;8.10;5.47;;;;;;;12.38;88.01;101036.63;1836464;77;20883;-85
2022/10/27 00:44:52;;;;;;;11.83;7.60;;;;;;;12.37;88.03;101040.19;1836789;77;20934;-85
2022/10/27 00:47:26;;;;;;;11.35;6.47;;;;;;;12.36;87.95;101038.95;1836458;77;21013;-86
2022/10/27 00:50:05;;;;;;;6.53;5.40;;;;;;;12.38;87.96;101039.70;1835609;76;21447;-87
2022/10/27 00:52:42;;;;;;;6.00;4.83;;;;;;;12.37;87.69;101044.61;1835149;78;21057;-85
2022/10/27 00:55:25;;;;;;;5.78;5.15;;;;;;;12.33;87.46;101042.62;1835221;77;20885;-86
2022/10/27 00:57:55;;;;;;;4.37;3.98;;;;;;;12.31;87.54;101038.39;1837591;77;20890;-83
2022/10/27 01:00:22;;;;;;;3.70;3.40;;;;;;;12.29;87.73;101041.59;1836213;76;21002;-86
2022/10/27 01:02:49;;;;;;;4.35;3.02;;;;;;;12.32;87.82;101045.36;1835123;76;20820;-87
2022/10/27 01:05:21;;;;;;;3.00;2.70;;;;;;;12.30;87.48;101046.77;1835172;77;20855;-86
2022/10/27 01:07:49;;;;;;;4.97;4.33;;;;;;;12.29;87.43;101044.22;1834465;76;21391;-85
2022/10/27 01:10:17;;;;;;;3.37;3.08;;;;;;;12.27;87.50;101051.34;1835004;77;20914;-85
2022/10/27 01:12:44;;;;;;;3.65;3.30;;;;;;;12.24;87.50;101052.38;1834814;77;21774;-87
2022/10/27 01:15:11;;;;;;;3.92;3.35;;;;;;;12.20;87.39;101053.02;1834978;77;20832;-87
2022/10/27 01:18:06;;;;;;;5.30;3.37;;;;;;;12.17;87.47;101057.16;1835047;76;20871;-86
2022/10/27 01:21:22;;;;;;;3.22;2.67;;;;;;;12.15;87.65;101066.08;1834951;77;20871;-85
2022/10/27 01:24:23;;;;;;;3.47;2.85;;;;;;;12.13;87.65;101067.48;1836238;77;20871;-85
2022/10/27 01:26:53;;;;;;;4.95;2.72;;;;;;;12.12;87.75;101067.12;1836718;77;21205;-86
2022/10/27 01:29:57;;;;;;;6.33;3.10;;;;;;;12.15;87.99;101068.72;1837387;76;20859;-82
2022/10/27 01:32:52;;;;;;;4.17;3.70;;;;;;;12.17;87.83;101073.41;1837438;76;20962;-83
2022/10/27 01:35:45;;;;;;;5.47;3.10;;;;;;;12.18;87.51;101072.47;1844053;77;20872;-84
2022/10/27 01:38:22;;;;;;;3.37;3.08;;;;;;;12.19;87.31;101067.59;1860356;77;20832;-84
2022/10/27 01:41:01;;;;;;;5.42;2.98;;;;;;;12.19;87.03;101071.55;1860363;77;21234;-86
2022/10/27 01:43:29;;;;;;;3.22;2.55;;;;;;;12.19;87.15;101072.38;1861433;77;21036;-85
2022/10/27 01:45:56;;;;;;;3.65;2.58;;;;;;;12.21;87.08;101061.78;1860210;76;20939;-86
2022/10/27 01:48:22;;;;;;;5.20;3.20;;;;;;;12.24;86.89;101070.80;1819860;77;20887;-85
2022/10/27 01:50:49;;;;;;;2.80;2.55;;;;;;;12.25;86.76;101072.50;1860282;77;20883;-84
2022/10/27 01:53:17;;;;;;;2.37;2.17;;;;;;;12.23;86.51;101065.17;1860223;76;21056;-86
2022/10/27 01:56:01;;;;;;;2.95;1.82;;;;;;;12.24;86.40;101072.11;1860113;77;20982;-86
2022/10/27 01:59:15;;;;;;;2.67;2.12;;;;;;;12.22;86.38;101075.29;1860336;77;20880;-85
2022/10/27 02:02:19;;;;;;;2.50;2.30;;;;;;;12.22;86.37;101080.55;1859787;77;20946;-86
2022/10/27 02:05:05;;;;;;;6.72;2.52;;;;;;;12.18;86.29;101080.35;1860009;76;21393;-85
2022/10/27 02:07:43;;;;;;;3.37;2.37;;;;;;;12.17;86.25;101086.09;1862179;77;21304;-85
2022/10/27 02:10:20;;;;;;;2.83;2.20;;;;;;;12.19;86.25;101089.47;1860367;77;20903;-85
2022/10/27 02:12:48;;;;;;;1.95;1.85;;;;;;;12.20;86.08;101083.73;1860155;76;20919;-84
2022/10/27 02:15:33;;;;;;;4.37;2.40;;;;;;;12.23;85.96;101092.78;1860030;77;20962;-85
2022/10/27 02:18:14;;;;;;;1.90;1.77;;;;;;;12.23;85.73;101091.47;1860448;77;20957;-85
2022/10/27 02:20:44;;;;;;;4.83;1.98;;;;;;;12.21;85.70;101093.34;1849869;77;21110;-84
2022/10/27 02:23:15;;;;;;;7.95;2.55;;;;;;;12.20;85.63;101097.72;1860227;77;20875;-86
2022/10/27 02:25:49;;;;;;;5.62;2.42;;;;;;;12.21;85.52;101102.06;1860961;77;20883;-83
2022/10/27 02:28:17;;;;;;;8.33;3.72;;;;;;;12.23;85.57;101101.98;1859980;77;20969;-86
2022/10/27 02:30:45;;;;;;;2.83;2.02;;;;;;;12.22;85.21;101105.53;1860176;77;21009;-86
2022/10/27 02:33:12;;;;;;;1.95;1.77;;;;;;;12.23;85.17;101106.77;1820560;77;21103;-85
2022/10/27 02:35:38;;;;;;;2.70;2.25;;;;;;;12.22;85.12;101114.26;1858542;77;20834;-85
2022/10/27 02:38:05;;;;;;;3.45;2.35;;;;;;;12.23;85.01;101101.51;1849529;77;20881;-85
2022/10/27 02:40:31;;;;;;;2.08;1.98;;;;;;;12.24;85.25;101108.92;1849302;77;20905;-85
2022/10/27 02:42:58;;;;;;;4.90;2.72;;;;;;;12.29;85.34;101113.91;1849764;77;20861;-85
2022/10/27 02:45:24;;;;;;;3.25;2.42;;;;;;;12.33;85.38;101112.31;1850124;76;21114;-86
2022/10/27 02:47:51;;;;;;;4.97;2.90;;;;;;;12.35;85.24;101115.70;1849529;77;20826;-86
2022/10/27 02:50:19;;;;;;;7.67;3.10;;;;;;;12.36;85.19;101113.91;1849312;77;20913;-87
2022/10/27 02:52:46;;;;;;;3.35;2.92;;;;;;;12.36;85.38;101114.78;1849316;77;20971;-86
2022/10/27 02:55:13;;;;;;;5.65;3.10;;;;;;;12.39;85.55;101125.58;1849463;77;20874;-86
2022/10/27 02:57:40;;;;;;;5.75;3.85;;;;;;;12.41;85.50;101119.77;1849435;77;21316;-86
2022/10/27 03:00:08;;;;;;;9.95;4.80;;;;;;;12.41;85.51;101120.61;1849598;76;20885;-85
2022/10/27 03:02:34;;;;;;;4.05;3.37;;;;;;;12.42;85.65;101129.33;1849661;77;21284;-86
2022/10/27 03:05:02;;;;;;;7.22;4.47;;;;;;;12.42;85.56;101130.17;1849409;77;20889;-85
2022/10/27 03:07:29;;;;;;;6.12;4.30;;;;;;;12.41;85.66;101132.92;1849343;77;20865;-85
2022/10/27 03:09:55;;;;;;;5.92;4.42;;;;;;;12.40;85.72;101140.41;1850052;76;21842;-84
2022/10/27 03:12:22;;;;;;;4.33;3.75;;;;;;;12.40;85.76;101143.05;1850542;77;20838;-87
2022/10/27 03:14:49;;;;;;;4.60;4.17;;;;;;;12.39;86.04;101140.89;1849609;77;21028;-86
2022/10/27 03:17:17;;;;;;;6.17;4.65;;;;;;;12.40;85.98;101132.52;1851513;77;20897;-84
2022/10/27 03:19:44;;;;;;;4.60;3.55;;;;;;;12.41;86.02;101131.60;1849944;77;20917;-87
2022/10/27 03:22:10;;;;;;;5.67;4.05;;;;;;;12.40;86.19;101141.73;1849580;77;21159;-87
2022/10/27 03:24:37;;;;;;;5.95;3.80;;;;;;;12.39;86.26;101143.52;1850164;77;20886;-81
2022/10/27 03:27:03;;;;;;;6.03;4.10;;;;;;;12.40;86.34;101145.20;1852093;77;20881;-84
2022/10/27 03:29:30;;;;;;;5.37;4.70;;;;;;;12.40;86.29;101147.83;1852921;76;20992;-86
2022/10/27 03:31:56;;;;;;;7.45;4.08;;;;;;;12.38;86.24;101151.05;1853025;77;20897;-85
2022/10/27 03:34:23;;;;;;;8.25;3.72;;;;;;;12.37;86.38;101151.97;1852776;77;21096;-85
2022/10/27 03:36:49;;;;;;;5.53;3.67;;;;;;;12.37;86.42;101148.50;1860042;77;20951;-83
2022/10/27 03:39:16;;;;;;;4.87;4.05;;;;;;;12.40;86.54;101149.63;1861814;77;20864;-86
2022/10/27 03:41:43;;;;;;;4.37;3.90;;;;;;;12.42;86.41;101156.95;1860288;76;20902;-87
2022/10/27 03:44:10;;;;;;;5.03;3.30;;;;;;;12.43;86.17;101161.30;1860643;76;20880;-85
2022/10/27 03:46:36;;;;;;;69.62;61.05;;;;;;;12.41;85.98;101162.69;1860486;77;21140;-85
2022/10/27 03:49:03;;;;;;;5.08;4.28;;;;;;;12.40;86.05;101166.23;1860371;77;20906;-86
2022/10/27 03:51:30;;;;;;;5.72;3.90;;;;;;;12.41;85.89;101172.37;1860200;77;20895;-88
2022/10/27 03:53:57;;;;;;;4.80;3.40;;;;;;;12.38;85.81;101172.09;1861687;77;20955;-85
2022/10/27 03:56:24;;;;;;;3.70;3.40;;;;;;;12.39;85.70;101173.77;1862955;77;20954;-85
2022/10/27 03:58:50;;;;;;;3.90;3.25;;;;;;;12.38;85.45;101166.83;1861845;76;21125;-86
2022/10/27 04:01:17;;;;;;;5.65;3.17;;;;;;;12.37;85.31;101169.54;1819884;77;20891;-85
2022/10/27 04:03:43;;;;;;;5.55;3.30;;;;;;;12.36;85.21;101167.83;1860217;77;20836;-86
2022/10/27 04:06:10;;;;;;;5.17;3.52;;;;;;;12.34;84.94;101173.20;1823850;77;20879;-87
2022/10/27 04:08:36;;;;;;;5.75;3.50;;;;;;;12.32;84.72;101176.38;1860192;77;20962;-86
2022/10/27 04:11:04;;;;;;;5.58;3.22;;;;;;;12.31;84.63;101185.20;1860182;76;21840;-87
2022/10/27 04:13:31;;;;;;;5.10;4.05;;;;;;;12.29;84.64;101176.55;1860088;77;21400;-85
2022/10/27 04:16:01;;;;;;;4.58;3.35;;;;;;;12.30;84.61;101182.67;1860126;77;20919;-86
2022/10/27 04:18:29;;;;;;;4.72;3.60;;;;;;;12.30;84.48;101173.47;1860219;76;20923;-85
2022/10/27 04:21:05;;;;;;;5.12;3.50;;;;;;;12.31;84.16;101180.41;1860049;77;20931;-87
2022/10/27 04:23:32;;;;;;;3.25;2.95;;;;;;;12.30;83.97;101190.56;1860172;77;21757;-85
2022/10/27 04:25:59;;;;;;;5.08;3.20;;;;;;;12.28;83.80;101193.75;1860449;76;20847;-86
2022/10/27 04:28:26;;;;;;;6.10;3.90;;;;;;;12.27;83.75;101195.51;1861538;77;20860;-86
2022/10/27 04:30:54;;;;;;;9.08;3.92;;;;;;;12.25;83.87;101196.09;1860464;77;20962;-84
2022/10/27 04:33:21;;;;;;;3.58;3.27;;;;;;;12.24;83.59;101197.85;1861000;77;20843;-85
2022/10/27 04:35:48;;;;;;;3.25;2.95;;;;;;;12.22;83.25;101203.66;1862446;77;21122;-85
2022/10/27 04:38:15;;;;;;;6.15;3.62;;;;;;;12.21;83.17;101205.92;1863253;77;20899;-83
2022/10/27 04:40:42;;;;;;;4.60;3.90;;;;;;;12.19;83.01;101209.11;1863575;77;20871;-86
2022/10/27 04:43:08;;;;;;;3.40;3.10;;;;;;;12.18;83.04;101211.81;1862446;77;21043;-83
2022/10/27 04:45:35;;;;;;;4.00;3.02;;;;;;;12.17;82.80;101207.03;1861478;76;20953;-85
2022/10/27 04:48:02;;;;;;;3.50;3.08;;;;;;;12.18;82.71;101215.77;1862105;76;21086;-85
2022/10/27 04:50:29;;;;;;;5.30;3.27;;;;;;;12.17;82.62;101217.55;1861421;77;20931;-87
2022/10/27 04:52:58;;;;;;;3.83;3.40;;;;;;;12.18;82.64;101225.84;1860397;76;20899;-86
2022/10/27 04:55:25;;;;;;;5.12;3.30;;;;;;;12.21;82.50;101228.28;1859346;76;21020;-87
2022/10/27 04:57:52;;;;;;;4.45;3.10;;;;;;;12.21;82.61;101226.97;1860341;77;20843;-84
2022/10/27 05:00:19;;;;;;;3.45;3.00;;;;;;;12.23;82.49;101230.36;1860421;76;21118;-86
2022/10/27 05:02:46;;;;;;;6.20;3.33;;;;;;;12.23;82.60;101231.67;1860882;77;20876;-86
2022/10/27 05:05:13;;;;;;;3.67;2.92;;;;;;;12.24;82.56;101242.55;1772929;77;20930;-86
2022/10/27 05:07:39;;;;;;;4.60;3.60;;;;;;;12.26;82.52;101242.48;1860312;77;20926;-87
2022/10/27 05:10:08;;;;;;;3.87;3.47;;;;;;;12.26;82.57;101238.53;1860085;76;20923;-86
2022/10/27 05:12:35;;;;;;;4.72;3.45;;;;;;;12.25;82.58;101246.06;1860255;77;21486;-87
2022/10/27 05:15:04;;;;;;;3.20;2.85;;;;;;;12.22;82.80;101251.00;1860090;77;20863;-86
2022/10/27 05:17:31;;;;;;;4.55;3.62;;;;;;;12.23;83.01;101262.39;1860351;77;20958;-85
2022/10/27 05:19:58;;;;;;;3.60;3.17;;;;;;;12.21;83.05;101262.47;1860606;77;20871;-85
2022/10/27 05:22:25;;;;;;;8.53;3.20;;;;;;;12.19;83.07;101261.70;1820489;77;20898;-85
2022/10/27 05:24:51;;;;;;;5.22;3.47;;;;;;;12.20;83.10;101271.75;1860459;77;21032;-87
2022/10/27 05:27:21;;;;;;;5.03;4.08;;;;;;;12.20;83.13;101267.80;1860033;77;20964;-85
2022/10/27 05:29:47;;;;;;;4.20;3.83;;;;;;;12.21;83.03;101274.30;1860089;76;20966;-87
2022/10/27 05:32:14;;;;;;;2.83;2.62;;;;;;;12.24;83.14;101275.91;1859990;77;20864;-88
2022/10/27 05:34:42;;;;;;;7.55;3.70;;;;;;;12.26;82.56;101279.30;1860343;77;20847;-87
2022/10/27 05:37:08;;;;;;;4.72;3.15;;;;;;;12.27;82.19;101286.23;1862025;77;21744;-85
2022/10/27 05:39:38;;;;;;;5.75;3.67;;;;;;;12.27;82.26;101289.34;1860100;77;20990;-87
2022/10/27 05:42:04;;;;;;;6.50;2.85;;;;;;;12.28;82.36;101291.89;1860187;77;21511;-85
2022/10/27 05:44:33;;;;;;;3.17;2.90;;;;;;;12.28;82.40;101291.05;1860707;76;20887;-87
2022/10/27 05:46:59;;;;;;;3.90;3.47;;;;;;;12.29;82.38;101294.89;1861600;77;20902;-86
2022/10/27 05:49:27;;;;;;;7.50;3.58;;;;;;;12.32;82.23;101303.09;1862326;77;21141;-87
2022/10/27 05:51:54;;;;;;;10.20;3.25;;;;;;;12.33;82.09;101304.31;1862482;76;20856;-85
2022/10/27 05:54:23;;;;;;;3.98;3.52;;;;;;;12.33;81.83;101304.31;1862754;77;20884;-84
2022/10/27 05:56:50;;;;;;;5.80;3.00;;;;;;;12.33;81.85;101308.25;1862768;77;20962;-85
2022/10/27 05:59:19;;;;;;;3.90;3.15;;;;;;;12.33;81.77;101307.41;1861529;76;21057;-86
2022/10/27 06:01:45;;;;;;;4.30;3.02;;;;;;;12.31;81.31;101317.17;1861022;76;21049;-86
2022/10/27 08:35:40;;;;;;;2.90;2.58;;;;;;;15.95;69.79;101439.53;1756231;81;20877;-85
2022/10/27 08:38:13;;;;;;;2.62;2.12;;;;;;;16.39;66.86;101443.50;1756207;81;20932;-85
2022/10/27 08:41:15;;;;;;;5.08;2.12;;;;;;;16.62;66.14;101433.05;1758148;80;20901;-85
2022/10/27 08:44:09;;;;;;;2.20;2.10;;;;;;;17.00;66.02;101436.89;1759590;80;20876;-86
2022/10/27 08:46:54;;;;;;;2.27;2.07;;;;;;;17.56;63.82;101438.88;1760155;80;21507;-86
2022/10/27 08:49:50;;;;;;;2.30;1.67;;;;;;;18.02;62.00;101438.84;1751300;80;20889;-85
2022/10/27 08:52:35;;;;;;;2.87;1.60;;;;;;;18.55;60.14;101435.55;1759292;81;20987;-86
2022/10/27 08:55:17;;;;;;;4.30;2.10;;;;;;;18.91;58.90;101440.69;1757023;79;20999;-88
2022/10/27 08:57:59;;;;;;;2.42;1.55;;;;;;;18.90;57.59;101438.52;1760211;79;20875;-86
2022/10/27 09:00:28;;;;;;;3.72;1.60;;;;;;;18.71;56.66;101443.12;1758411;81;20925;-86
2022/10/27 09:03:19;;;;;;;2.65;1.05;;;;;;;18.38;56.98;101453.32;1765031;81;20932;-88
2022/10/27 09:06:09;;;;;;;3.55;2.35;;;;;;;18.04;57.82;101449.84;1734780;80;20916;-87
2022/10/27 09:09:06;;;;;;;4.12;1.95;;;;;;;17.67;58.41;101452.16;1752678;81;21007;-88
2022/10/27 09:11:48;;;;;;;3.02;2.30;;;;;;;17.42;58.83;101451.03;1757598;81;20932;-88
2022/10/27 09:15:06;;;;;;;3.80;2.45;;;;;;;17.13;59.71;101447.43;1765341;81;21270;-86
2022/10/27 09:17:54;;;;;;;3.92;2.30;;;;;;;16.92;60.71;101454.69;1759475;81;20940;-85
2022/10/27 09:20:41;;;;;;;57.85;51.50;;;;;;;16.60;60.83;101447.72;1757946;80;20991;-86
2022/10/27 09:23:15;;;;;;;17.73;14.63;;;;;;;16.25;61.60;101450.23;1765225;80;20928;-86
2022/10/27 09:25:44;;;;;;;8.75;6.85;;;;;;;15.93;62.83;101454.66;1765083;81;20893;-87
2022/10/27 09:28:19;;;;;;;8.10;4.00;;;;;;;15.68;63.58;101452.83;1764469;81;21244;-86
2022/10/27 09:30:47;;;;;;;8.55;4.35;;;;;;;15.49;64.49;101450.58;1765054;81;20975;-86
2022/10/27 09:33:21;;;;;;;3.45;3.15;;;;;;;15.34;65.24;101448.03;1764583;80;21551;-86
2022/10/27 09:35:49;;;;;;;3.87;3.22;;;;;;;15.29;65.80;101454.55;1764656;81;20984;-87
2022/10/27 09:38:22;;;;;;;4.35;2.75;;;;;;;15.25;66.42;101451.28;1764455;81;20909;-85
2022/10/27 09:40:48;;;;;;;5.70;2.35;;;;;;;15.24;66.84;101450.90;1764417;81;21475;-86
2022/10/27 09:43:18;;;;;;;2.85;2.62;;;;;;;15.24;67.21;101456.19;1764596;81;20976;-87
2022/10/27 09:45:48;;;;;;;4.60;2.37;;;;;;;15.28;67.77;101448.91;1754534;81;20952;-83
2022/10/27 09:48:18;;;;;;;5.03;3.22;;;;;;;15.37;68.03;101450.94;1736413;81;20904;-86
2022/10/27 09:50:57;;;;;;;6.10;3.15;;;;;;;15.38;67.60;101453.09;1756866;81;20979;-85
2022/10/27 09:53:49;;;;;;;4.12;3.75;;;;;;;15.34;67.50;101459.08;1760425;80;21179;-88
2022/10/27 09:56:26;;;;;;;7.08;3.70;;;;;;;15.26;67.92;101454.29;1764660;80;20932;-87
2022/10/27 09:59:01;;;;;;;5.12;4.62;;;;;;;15.20;68.26;101453.84;1763353;80;20989;-85
2022/10/27 10:01:55;;;;;;;5.00;4.20;;;;;;;15.19;68.72;101452.17;1764649;81;20983;-84
2022/10/27 10:04:27;;;;;;;5.95;4.65;;;;;;;15.16;68.88;101461.11;1763872;81;21421;-85
2022/10/27 10:06:57;;;;;;;7.22;4.03;;;;;;;15.07;68.88;101457.77;1763101;80;21278;-84
2022/10/27 10:09:31;;;;;;;4.20;3.77;;;;;;;14.98;69.59;101463.17;1764994;80;20976;-83
2022/10/27 10:12:25;;;;;;;6.17;4.85;;;;;;;14.96;70.01;101455.81;1762911;80;20928;-86
2022/10/27 10:15:11;;;;;;;7.45;4.15;;;;;;;14.96;70.17;101459.78;1764363;81;20896;-87
2022/10/27 10:17:44;;;;;;;4.62;4.12;;;;;;;14.92;70.23;101456.98;1754880;81;20904;-83
2022/10/27 10:20:40;;;;;;;8.05;4.95;;;;;;;14.92;70.23;101456.98;1764106;81;20877;-85
2022/10/27 10:23:15;;;;;;;7.70;4.50;;;;;;;14.92;70.60;101460.95;1757671;81;20944;-85
2022/10/27 10:25:46;;;;;;;4.62;4.22;;;;;;;14.90;70.99;101465.00;1764001;79;20928;-86
2022/10/27 10:28:23;;;;;;;5.12;4.42;;;;;;;14.92;71.04;101456.98;1762950;80;20956;-86
2022/10/27 10:30:53;;;;;;;8.23;4.35;;;;;;;14.95;71.01;101459.91;1763662;80;20841;-85
2022/10/27 10:33:21;;;;;;;8.05;3.75;;;;;;;14.98;70.91;101460.53;1764615;80;21211;-85
2022/10/27 10:35:49;;;;;;;7.58;5.22;;;;;;;14.97;70.90;101456.69;1733693;81;20963;-86
2022/10/27 10:38:38;;;;;;;4.85;4.30;;;;;;;14.99;71.51;101454.80;1741112;81;21472;-85
2022/10/27 10:41:20;;;;;;;6.90;4.12;;;;;;;15.05;71.19;101450.41;1745124;81;20943;-86
2022/10/27 10:43:43;;;;;;;5.85;3.75;;;;;;;15.05;71.19;101450.41;1757813;81;20850;-85
2022/10/27 10:46:23;;;;;;;6.92;5.03;;;;;;;15.12;71.02;101453.89;1737894;81;21221;-84
2022/10/27 10:48:54;;;;;;;4.65;3.70;;;;;;;15.20;71.33;101450.72;1753607;81;21019;-86
2022/10/27 10:51:29;;;;;;;5.55;3.42;;;;;;;15.31;71.27;101453.50;1747299;80;21098;-86
2022/10/27 10:54:00;;;;;;;11.10;5.47;;;;;;;15.34;69.31;101458.59;1762529;80;20979;-86
2022/10/27 10:56:31;;;;;;;73.10;54.03;;;;;;;15.34;69.31;101458.59;1747095;80;20887;-86
2022/10/27 10:59:08;;;;;;;7.58;5.12;;;;;;;15.12;69.71;101460.97;1754147;81;21846;-86
2022/10/27 11:01:47;;;;;;;5.90;4.20;;;;;;;15.12;69.71;101460.97;1748341;80;21007;-86
2022/10/27 11:04:19;;;;;;;5.03;3.92;;;;;;;14.85;70.32;101458.31;1754151;81;20955;-86
2022/10/27 11:07:04;;;;;;;19.75;11.57;;;;;;;14.85;70.32;101458.31;1756388;81;21805;-87
2022/10/27 11:09:46;;;;;;;6.12;5.37;;;;;;;14.83;70.76;101455.79;1732769;81;20923;-85
2022/10/27 11:12:34;;;;;;;4.03;3.37;;;;;;;14.81;70.82;101462.12;1762622;80;21139;-85
2022/10/27 11:15:26;;;;;;;6.42;4.70;;;;;;;14.77;70.88;101455.34;1747086;81;20884;-85
2022/10/27 11:17:57;;;;;;;7.97;4.97;;;;;;;14.74;71.17;101458.16;1762760;80;20992;-87
2022/10/27 11:20:30;;;;;;;6.30;4.33;;;;;;;14.64;72.21;101465.34;1758672;80;21090;-85
2022/10/27 11:22:59;;;;;;;4.40;4.00;;;;;;;14.64;72.21;101465.34;1764453;80;20991;-85
2022/10/27 11:25:30;;;;;;;9.20;4.42;;;;;;;14.55;72.20;101465.09;1764761;81;21124;-84
2022/10/27 11:28:17;;;;;;;8.70;4.45;;;;;;;14.48;72.74;101474.67;1764862;81;20987;-84
2022/10/27 11:30:58;;;;;;;5.65;3.40;;;;;;;14.43;72.63;101471.97;1764981;81;20885;-85
2022/10/27 11:33:50;;;;;;;6.00;3.90;;;;;;;14.34;73.16;101475.16;1764831;80;21015;-86
2022/10/27 11:36:40;;;;;;;5.58;3.55;;;;;;;14.29;73.80;101474.13;1745079;81;20956;-84
2022/10/27 11:39:16;;;;;;;4.60;3.60;;;;;;;14.25;73.98;101468.20;1760660;80;21280;-85
2022/10/27 11:42:25;;;;;;;4.05;3.40;;;;;;;14.25;74.57;101472.61;1764342;80;20888;-84
2022/10/27 11:45:20;;;;;;;4.12;2.72;;;;;;;14.28;74.43;101469.80;1753093;80;20967;-85
2022/10/27 11:47:52;;;;;;;4.42;2.90;;;;;;;14.32;74.72;101479.23;1760393;80;20897;-85
2022/10/27 11:50:48;;;;;;;5.12;3.72;;;;;;;14.38;74.49;101476.19;1762213;81;21433;-84
2022/10/27 11:53:15;;;;;;;8.63;3.30;;;;;;;14.44;73.81;101482.88;1762732;80;21767;-86
2022/10/27 11:56:10;;;;;;;6.33;3.70;;;;;;;14.51;73.44;101490.78;1755115;80;20888;-85
2022/10/27 11:59:09;;;;;;;9.53;3.47;;;;;;;14.58;73.18;101481.56;1754336;81;21441;-86
2022/10/27 12:02:22;;;;;;;3.65;3.35;;;;;;;14.66;72.16;101481.09;1766335;78;20992;-86
2022/10/27 12:05:06;;;;;;;11.93;9.90;;;;;;;14.70;71.92;101479.48;1759594;81;20933;-86
2022/10/27 12:08:11;;;;;;;4.40;3.42;;;;;;;14.79;71.48;101483.81;1720895;81;21262;-86
2022/10/27 12:11:28;;;;;;;5.65;5.10;;;;;;;14.84;71.35;101479.91;1757408;81;20884;-85
2022/10/27 12:14:15;;;;;;;7.78;5.30;;;;;;;14.92;71.35;101483.40;1750540;81;21000;-86
2022/10/27 12:16:53;;;;;;;6.62;4.95;;;;;;;15.00;71.50;101494.78;1759633;81;20955;-84
2022/10/27 12:19:33;;;;;;;6.87;5.35;;;;;;;15.04;71.63;101495.80;1749178;81;20888;-84
2022/10/27 12:22:15;;;;;;;5.67;5.08;;;;;;;15.08;71.20;101501.27;1753589;80;21453;-83
2022/10/27 12:24:58;;;;;;;6.95;4.97;;;;;;;15.12;71.17;101506.73;1756332;81;21137;-84
2022/10/27 12:27:37;;;;;;;6.10;5.58;;;;;;;15.09;70.80;101503.42;1759198;80;20941;-85
2022/10/27 12:30:17;;;;;;;6.72;4.87;;;;;;;14.97;70.69;101505.08;1748359;80;20995;-84
2022/10/27 12:33:10;;;;;;;6.70;5.58;;;;;;;14.84;71.19;101510.77;1748069;81;20986;-84
2022/10/27 12:36:09;;;;;;;10.10;5.08;;;;;;;14.73;71.50;101507.96;1761893;81;21268;-85
2022/10/27 12:39:15;;;;;;;9.05;5.47;;;;;;;14.64;71.87;101521.27;1741952;81;21026;-87
2022/10/27 12:42:16;;;;;;;8.90;6.70;;;;;;;14.56;72.32;101521.72;1752927;81;20845;-82
2022/10/27 12:44:56;;;;;;;7.05;5.00;;;;;;;14.46;72.60;101524.55;1756056;81;20987;-85
2022/10/27 12:47:47;;;;;;;5.72;5.10;;;;;;;14.31;72.88;101535.09;1751550;80;21405;-84
2022/10/27 12:50:37;;;;;;;10.13;6.72;;;;;;;14.27;73.56;101539.33;1764674;81;21202;-84
2022/10/27 12:53:27;;;;;;;6.65;5.97;;;;;;;14.27;74.21;101541.96;1752788;81;20924;-84
2022/10/27 12:56:09;;;;;;;5.83;5.20;;;;;;;14.31;74.60;101542.16;1761816;80;20905;-86
2022/10/27 12:58:51;;;;;;;4.65;3.62;;;;;;;14.31;74.89;101551.39;1758352;81;21019;-84
2022/10/27 13:01:39;;;;;;;5.72;3.80;;;;;;;14.28;74.73;101543.20;1758133;80;22213;-85
2022/10/27 13:04:43;;;;;;;6.28;4.45;;;;;;;14.18;74.64;101557.88;1757328;81;21292;-84
2022/10/27 13:07:27;;;;;;;6.80;4.00;;;;;;;14.07;74.99;101553.27;1758436;80;20842;-84
2022/10/27 13:10:20;;;;;;;7.22;4.22;;;;;;;13.99;75.19;101553.34;1727125;81;20876;-85
2022/10/27 13:13:27;;;;;;;4.75;4.12;;;;;;;13.96;75.47;101554.83;1760577;81;21090;-85
2022/10/27 13:16:30;;;;;;;7.53;5.67;;;;;;;13.94;75.46;101557.58;1759339;80;21295;-85
2022/10/27 13:19:35;;;;;;;5.87;5.25;;;;;;;13.89;75.40;101564.89;1747211;81;22132;-86
2022/10/27 13:22:10;;;;;;;7.40;4.78;;;;;;;13.86;75.77;101562.44;1746155;81;21022;-85
2022/10/27 13:25:01;;;;;;;6.08;5.00;;;;;;;13.83;76.04;101568.75;1756785;81;20971;-83
2022/10/27 13:27:41;;;;;;;8.78;5.92;;;;;;;13.79;76.10;101571.18;1763805;81;21074;-85
2022/10/27 13:30:25;;;;;;;7.15;5.40;;;;;;;13.70;76.35;101569.08;1761619;81;20920;-84
2022/10/27 13:32:54;;;;;;;7.70;5.35;;;;;;;13.65;76.71;101565.40;1717397;81;21249;-85
2022/10/27 13:35:36;;;;;;;8.55;5.15;;;;;;;13.59;77.00;101572.81;1745759;81;20928;-84
2022/10/27 13:38:23;;;;;;;6.47;5.87;;;;;;;13.55;77.44;101573.91;1762997;81;20901;-84
2022/10/27 13:40:52;;;;;;;6.22;5.37;;;;;;;13.56;77.92;101579.55;1735552;81;20908;-85
2022/10/27 13:43:31;;;;;;;6.95;5.22;;;;;;;13.57;77.93;101581.27;1751295;81;20932;-84
2022/10/27 13:45:59;;;;;;;8.80;6.12;;;;;;;13.55;77.99;101585.30;1760142;81;22040;-86
2022/10/27 13:48:32;;;;;;;6.17;5.58;;;;;;;13.51;78.20;101587.72;1763681;81;20861;-86
2022/10/27 13:51:01;;;;;;;9.30;6.50;;;;;;;13.49;78.59;101592.23;1752240;80;21457;-85
2022/10/27 13:53:31;;;;;;;7.60;5.92;;;;;;;13.48;78.73;101595.34;1708558;81;20902;-85
2022/10/27 13:56:15;;;;;;;8.05;5.72;;;;;;;13.44;78.64;101592.97;1758251;81;21079;-86
2022/10/27 13:58:53;;;;;;;9.88;7.33;;;;;;;13.37;78.93;101593.78;1762855;80;21124;-85
2022/10/27 14:01:38;;;;;;;7.00;5.95;;;;;;;13.35;79.05;101591.70;1758799;80;21004;-86
2022/10/27 14:04:53;;;;;;;7.03;6.33;;;;;;;13.32;79.26;101594.52;1748289;80;20944;-84
2022/10/27 14:07:20;;;;;;;5.97;5.37;;;;;;;13.30;79.39;101598.17;1733695;81;21048;-83
2022/10/27 14:09:50;;;;;;;7.60;5.00;;;;;;;13.27;79.54;101596.50;1718725;81;21068;-83
2022/10/27 14:12:27;;;;;;;7.92;6.58;;;;;;;13.21;79.73;101600.81;1728678;81;21055;-86
2022/10/27 14:15:22;;;;;;;5.08;4.58;;;;;;;13.18;80.03;101599.65;1740655;80;21032;-84
2022/10/27 14:17:48;;;;;;;7.60;4.95;;;;;;;13.15;80.16;101598.04;1731733;82;21095;-85
2022/10/27 14:20:29;;;;;;;6.15;4.47;;;;;;;13.12;79.95;101594.27;1739397;80;21028;-83
2022/10/27 14:23:13;;;;;;;5.37;4.42;;;;;;;13.11;80.16;101595.66;1745490;81;20981;-85
2022/10/27 14:25:41;;;;;;;4.92;4.30;;;;;;;13.07;80.02;101596.28;1734361;82;21150;-84
2022/10/27 14:28:19;;;;;;;6.42;5.00;;;;;;;13.04;80.15;101595.15;1745543;81;20930;-84
2022/10/27 14:31:00;;;;;;;6.22;5.00;;;;;;;13.03;80.33;101600.89;1743133;81;20985;-84
2022/10/27 14:33:27;;;;;;;9.15;6.03;;;;;;;13.04;80.27;101596.47;1678204;81;21111;-84
2022/10/27 14:36:21;;;;;;;10.23;6.10;;;;;;;13.07;80.54;101593.65;1728915;80;21040;-85